Time,TemperatureF,DewpointF,PressureIn,WindDirection,WindDirectionDegrees,WindSpeedMPH,WindSpeedGustMPH,Humidity,HourlyPrecipIn,Conditions,Clouds,dailyrainin,SoftwareType,DateUTC
2013-02-21 00:03:00,38.9,38.1,30.06,ESE,103,0.0,0.0,97,0.00,,---,0.00,VWS V14.01,2013-02-21 08:03:00,
2013-02-21 00:08:00,38.8,38.0,30.06,ESE,103,1.0,2.0,97,0.00,,---,0.00,VWS V14.01,2013-02-21 08:08:00,
2013-02-21 00:13:00,38.8,38.0,30.06,ESE,103,0.0,0.0,97,0.00,,---,0.00,VWS V14.01,2013-02-21 08:13:00,
2013-02-21 00:18:00,38.7,37.9,30.06,ESE,103,2.0,4.0,97,0.00,,---,0.00,VWS V14.01,2013-02-21 08:18:00,
2013-02-21 00:23:00,38.7,37.9,30.05,East,89,0.0,2.0,97,0.00,,---,0.00,VWS V14.01,2013-02-21 08:23:00,
2013-02-21 00:28:00,38.6,37.8,30.06,East,89,0.0,1.0,97,0.00,,---,0.00,VWS V14.01,2013-02-21 08:28:00,
2013-02-21 00:33:00,38.6,37.8,30.06,East,89,0.0,0.0,97,0.00,,---,0.00,VWS V14.01,2013-02-21 08:33:00,
2013-02-21 00:38:00,38.5,37.7,30.06,East,89,0.0,0.0,97,0.00,,---,0.00,VWS V14.01,2013-02-21 08:38:00,
2013-02-21 00:43:00,38.4,37.6,30.06,East,89,0.0,0.0,97,0.00,,---,0.00,VWS V14.01,2013-02-21 08:43:00,
2013-02-21 00:48:00,38.4,37.6,30.06,East,89,1.0,2.0,97,0.00,,---,0.00,VWS V14.01,2013-02-21 08:48:00,
2013-02-21 00:53:00,38.4,37.6,30.06,East,89,0.0,0.0,97,0.00,,---,0.00,VWS V14.01,2013-02-21 08:53:00,
2013-02-21 00:58:00,38.4,37.6,30.06,East,89,1.0,3.0,97,0.00,,---,0.00,VWS V14.01,2013-02-21 08:58:00,
2013-02-21 01:03:00,38.5,37.7,30.07,East,89,1.0,1.0,97,0.00,,---,0.00,VWS V14.01,2013-02-21 09:03:00,
2013-02-21 01:08:00,38.5,37.7,30.07,East,89,0.0,0.0,97,0.00,,---,0.00,VWS V14.01,2013-02-21 09:08:00,
2013-02-21 01:13:00,38.5,37.7,30.08,East,89,0.0,0.0,97,0.00,,---,0.00,VWS V14.01,2013-02-21 09:13:00,
2013-02-21 01:18:00,38.5,37.7,30.08,East,89,0.0,1.0,97,0.00,,---,0.00,VWS V14.01,2013-02-21 09:18:00,
2013-02-21 01:23:00,38.5,37.7,30.08,East,89,0.0,0.0,97,0.00,,---,0.00,VWS V14.01,2013-02-21 09:23:00,
2013-02-21 01:28:00,38.5,37.7,30.08,East,89,0.0,0.0,97,0.00,,---,0.00,VWS V14.01,2013-02-21 09:28:00,
2013-02-21 01:33:00,38.5,37.7,30.09,East,89,0.0,0.0,97,0.00,,---,0.00,VWS V14.01,2013-02-21 09:33:00,
2013-02-21 01:38:00,38.5,37.7,30.08,East,90,2.0,4.0,97,0.00,,---,0.00,VWS V14.01,2013-02-21 09:38:00,
2013-02-21 01:43:00,38.6,37.8,30.08,ESE,112,1.0,5.0,97,0.00,,---,0.00,VWS V14.01,2013-02-21 09:43:00,
2013-02-21 01:48:00,38.7,37.9,30.08,ESE,120,2.0,4.0,97,0.00,,---,0.00,VWS V14.01,2013-02-21 09:48:00,
2013-02-21 01:53:00,38.7,37.9,30.08,ESE,120,2.0,2.0,97,0.00,,---,0.00,VWS V14.01,2013-02-21 09:53:00,
2013-02-21 01:58:00,38.6,37.8,30.09,ESE,120,0.0,0.0,97,0.00,,---,0.00,VWS V14.01,2013-02-21 09:58:00,
2013-02-21 02:03:00,38.6,37.8,30.09,ESE,120,1.0,2.0,97,0.00,,---,0.00,VWS V14.01,2013-02-21 10:03:00,
2013-02-21 02:08:00,38.6,37.8,30.10,ESE,120,2.0,4.0,97,0.00,,---,0.00,VWS V14.01,2013-02-21 10:08:00,
2013-02-21 02:13:00,38.7,37.9,30.09,SE,132,6.0,6.0,97,0.00,,---,0.00,VWS V14.01,2013-02-21 10:13:00,
2013-02-21 02:18:00,38.7,37.9,30.07,ESE,121,6.0,6.0,97,0.00,,---,0.00,VWS V14.01,2013-02-21 10:18:00,
2013-02-21 02:23:00,38.6,37.8,30.08,SE,136,2.0,2.0,97,0.00,,---,0.00,VWS V14.01,2013-02-21 10:23:00,
2013-02-21 02:28:00,38.6,37.8,30.08,SE,142,0.0,2.0,97,0.00,,---,0.00,VWS V14.01,2013-02-21 10:28:00,
2013-02-21 02:33:00,38.6,37.8,30.08,SE,142,2.0,4.0,97,0.01,,---,0.01,VWS V14.01,2013-02-21 10:33:00,
2013-02-21 02:38:00,38.6,37.8,30.08,SSE,157,4.0,5.0,97,0.01,,---,0.01,VWS V14.01,2013-02-21 10:38:00,
2013-02-21 02:43:00,38.6,37.6,30.08,SSE,168,1.0,5.0,96,0.01,,---,0.01,VWS V14.01,2013-02-21 10:43:00,
2013-02-21 02:48:00,38.7,37.7,30.08,SSE,168,0.0,2.0,96,0.01,,---,0.01,VWS V14.01,2013-02-21 10:48:00,
2013-02-21 02:53:00,38.8,37.8,30.08,SSE,168,1.0,4.0,96,0.01,,---,0.01,VWS V14.01,2013-02-21 10:53:00,
2013-02-21 02:58:00,38.8,37.8,30.07,SE,137,1.0,5.0,96,0.01,,---,0.01,VWS V14.01,2013-02-21 10:58:00,
2013-02-21 03:03:00,38.8,37.8,30.08,SE,137,0.0,1.0,96,0.01,,---,0.01,VWS V14.01,2013-02-21 11:03:00,
2013-02-21 03:08:00,38.9,37.9,30.08,SE,137,0.0,2.0,96,0.01,,---,0.01,VWS V14.01,2013-02-21 11:08:00,
2013-02-21 03:13:00,38.9,37.9,30.09,South,185,4.0,4.0,96,0.01,,---,0.01,VWS V14.01,2013-02-21 11:13:00,
2013-02-21 03:18:00,39.0,38.0,30.09,South,185,1.0,1.0,96,0.01,,---,0.01,VWS V14.01,2013-02-21 11:18:00,
2013-02-21 03:23:00,39.0,37.7,30.09,South,191,0.0,2.0,95,0.01,,---,0.01,VWS V14.01,2013-02-21 11:23:00,
2013-02-21 03:28:00,39.1,37.8,30.08,SSE,161,0.0,4.0,95,0.01,,---,0.01,VWS V14.01,2013-02-21 11:28:00,
2013-02-21 03:33:00,39.1,37.8,30.08,SSE,161,1.0,2.0,95,0.00,,---,0.01,VWS V14.01,2013-02-21 11:33:00,
2013-02-21 03:38:00,39.1,37.8,30.08,SSE,158,5.0,5.0,95,0.00,,---,0.01,VWS V14.01,2013-02-21 11:38:00,
2013-02-21 03:43:00,39.1,37.8,30.07,SSE,156,5.0,9.0,95,0.00,,---,0.01,VWS V14.01,2013-02-21 11:43:00,
2013-02-21 03:48:00,39.2,37.9,30.06,SSE,155,6.0,10.0,95,0.00,,---,0.01,VWS V14.01,2013-02-21 11:48:00,
2013-02-21 03:53:00,39.3,38.0,30.07,SSE,151,6.0,9.0,95,0.00,,---,0.01,VWS V14.01,2013-02-21 11:53:00,
2013-02-21 03:58:00,39.4,38.1,30.07,SSW,206,9.0,11.0,95,0.00,,---,0.01,VWS V14.01,2013-02-21 11:58:00,
2013-02-21 04:03:00,39.5,38.2,30.07,South,184,5.0,12.0,95,0.00,,---,0.01,VWS V14.01,2013-02-21 12:03:00,
2013-02-21 04:08:00,39.6,38.3,30.08,SW,227,10.0,10.0,95,0.00,,---,0.01,VWS V14.01,2013-02-21 12:08:00,
2013-02-21 04:13:00,39.7,38.1,30.08,WSW,243,10.0,11.0,94,0.00,,---,0.01,VWS V14.01,2013-02-21 12:13:00,
2013-02-21 04:18:00,39.8,38.2,30.08,SSW,205,8.0,10.0,94,0.00,,---,0.01,VWS V14.01,2013-02-21 12:18:00,
2013-02-21 04:23:00,39.9,38.3,30.08,South,176,8.0,11.0,94,0.00,,---,0.01,VWS V14.01,2013-02-21 12:23:00,
2013-02-21 04:28:00,39.9,38.3,30.08,SSW,204,10.0,11.0,94,0.00,,---,0.01,VWS V14.01,2013-02-21 12:28:00,
2013-02-21 04:33:00,39.9,38.3,30.08,SW,218,2.0,7.0,94,0.00,,---,0.01,VWS V14.01,2013-02-21 12:33:00,
2013-02-21 04:38:00,39.8,38.2,30.08,SW,216,4.0,9.0,94,0.00,,---,0.01,VWS V14.01,2013-02-21 12:38:00,
2013-02-21 04:43:00,39.8,38.2,30.07,South,188,10.0,10.0,94,0.00,,---,0.01,VWS V14.01,2013-02-21 12:43:00,
2013-02-21 04:48:00,39.8,38.2,30.07,SSW,205,10.0,12.0,94,0.00,,---,0.01,VWS V14.01,2013-02-21 12:48:00,
2013-02-21 04:53:00,39.8,38.2,30.07,SSW,202,8.0,10.0,94,0.00,,---,0.01,VWS V14.01,2013-02-21 12:53:00,
2013-02-21 04:58:00,39.7,38.1,30.08,South,189,6.0,9.0,94,0.00,,---,0.01,VWS V14.01,2013-02-21 12:58:00,
2013-02-21 05:03:00,39.8,38.5,30.08,SW,232,9.0,13.0,95,0.00,,---,0.01,VWS V14.01,2013-02-21 13:03:00,
2013-02-21 05:08:00,39.7,38.4,30.08,SW,216,7.0,7.0,95,0.00,,---,0.01,VWS V14.01,2013-02-21 13:08:00,
2013-02-21 05:13:00,39.7,38.4,30.08,South,184,7.0,9.0,95,0.00,,---,0.01,VWS V14.01,2013-02-21 13:13:00,
2013-02-21 05:18:00,39.7,38.4,30.08,SW,232,9.0,13.0,95,0.00,,---,0.01,VWS V14.01,2013-02-21 13:18:00,
2013-02-21 05:23:00,39.8,38.5,30.08,SSW,195,6.0,10.0,95,0.00,,---,0.01,VWS V14.01,2013-02-21 13:23:00,
2013-02-21 05:28:00,39.7,38.4,30.08,SSW,194,5.0,10.0,95,0.00,,---,0.01,VWS V14.01,2013-02-21 13:28:00,
2013-02-21 05:33:00,39.7,38.1,30.08,SSW,202,6.0,7.0,94,0.00,,---,0.01,VWS V14.01,2013-02-21 13:33:00,
2013-02-21 05:38:00,39.7,38.1,30.08,SW,227,16.0,19.0,94,0.00,,---,0.01,VWS V14.01,2013-02-21 13:38:00,
2013-02-21 05:43:00,39.8,38.2,30.08,SSW,199,8.0,12.0,94,0.01,,---,0.02,VWS V14.01,2013-02-21 13:43:00,
2013-02-21 05:48:00,39.8,38.2,30.08,SSE,155,8.0,11.0,94,0.01,,---,0.02,VWS V14.01,2013-02-21 13:48:00,
2013-02-21 05:53:00,39.8,38.2,30.08,SSW,194,7.0,13.0,94,0.01,,---,0.02,VWS V14.01,2013-02-21 13:53:00,
2013-02-21 05:58:00,39.8,38.2,30.08,South,185,6.0,7.0,94,0.01,,---,0.02,VWS V14.01,2013-02-21 13:58:00,
2013-02-21 06:03:00,39.8,38.2,30.08,South,178,4.0,9.0,94,0.01,,---,0.02,VWS V14.01,2013-02-21 14:03:00,
2013-02-21 06:08:00,40.0,38.4,30.08,SW,216,15.0,15.0,94,0.01,,---,0.02,VWS V14.01,2013-02-21 14:08:00,
2013-02-21 06:13:00,40.0,38.1,30.08,West,279,4.0,11.0,93,0.01,,---,0.02,VWS V14.01,2013-02-21 14:13:00,
2013-02-21 06:18:00,40.1,38.2,30.09,SSE,150,2.0,4.0,93,0.01,,---,0.02,VWS V14.01,2013-02-21 14:18:00,
2013-02-21 06:23:00,40.0,38.1,30.09,SSW,197,3.0,5.0,93,0.01,,---,0.02,VWS V14.01,2013-02-21 14:23:00,
2013-02-21 06:28:00,40.1,38.2,30.09,SW,216,9.0,13.0,93,0.01,,---,0.02,VWS V14.01,2013-02-21 14:28:00,
2013-02-21 06:33:00,40.2,38.3,30.09,SSW,205,5.0,7.0,93,0.01,,---,0.02,VWS V14.01,2013-02-21 14:33:00,
2013-02-21 06:38:00,40.3,38.4,30.09,South,190,11.0,11.0,93,0.01,,---,0.02,VWS V14.01,2013-02-21 14:38:00,
2013-02-21 06:43:00,40.3,38.4,30.08,South,183,6.0,6.0,93,0.00,,---,0.02,VWS V14.01,2013-02-21 14:43:00,
2013-02-21 06:48:00,40.4,38.5,30.08,SW,218,10.0,13.0,93,0.00,,---,0.02,VWS V14.01,2013-02-21 14:48:00,
2013-02-21 06:53:00,40.5,38.4,30.08,SSW,213,5.0,10.0,92,0.00,,---,0.02,VWS V14.01,2013-02-21 14:53:00,
2013-02-21 06:58:00,40.7,38.3,30.08,SSE,163,11.0,14.0,91,0.00,,---,0.02,VWS V14.01,2013-02-21 14:58:00,
2013-02-21 07:03:00,40.9,38.5,30.08,South,185,6.0,12.0,91,0.00,,---,0.02,VWS V14.01,2013-02-21 15:03:00,
2013-02-21 07:08:00,40.9,38.5,30.09,South,180,13.0,24.0,91,0.00,,---,0.02,VWS V14.01,2013-02-21 15:08:00,
2013-02-21 07:13:00,40.8,38.4,30.09,SSW,199,11.0,19.0,91,0.00,,---,0.02,VWS V14.01,2013-02-21 15:13:00,
2013-02-21 07:18:00,40.8,38.4,30.09,SSW,203,5.0,13.0,91,0.00,,---,0.02,VWS V14.01,2013-02-21 15:18:00,
2013-02-21 07:23:00,40.8,38.4,30.09,SSE,163,11.0,11.0,91,0.00,,---,0.02,VWS V14.01,2013-02-21 15:23:00,
2013-02-21 07:28:00,40.9,38.5,30.10,SW,236,5.0,10.0,91,0.00,,---,0.02,VWS V14.01,2013-02-21 15:28:00,
2013-02-21 07:33:00,41.0,38.6,30.09,South,184,6.0,12.0,91,0.00,,---,0.02,VWS V14.01,2013-02-21 15:33:00,
2013-02-21 07:38:00,40.9,38.5,30.09,SSW,205,12.0,15.0,91,0.00,,---,0.02,VWS V14.01,2013-02-21 15:38:00,
2013-02-21 07:43:00,40.9,38.5,30.10,SSW,209,5.0,5.0,91,0.00,,---,0.02,VWS V14.01,2013-02-21 15:43:00,
2013-02-21 07:48:00,41.0,38.6,30.10,South,174,6.0,8.0,91,0.00,,---,0.02,VWS V14.01,2013-02-21 15:48:00,
2013-02-21 07:53:00,41.1,38.4,30.10,SW,216,15.0,15.0,90,0.00,,---,0.02,VWS V14.01,2013-02-21 15:53:00,
2013-02-21 07:58:00,41.0,38.3,30.10,SW,234,15.0,15.0,90,0.00,,---,0.02,VWS V14.01,2013-02-21 15:58:00,
2013-02-21 08:03:00,41.1,38.4,30.10,SSW,206,9.0,15.0,90,0.00,,---,0.02,VWS V14.01,2013-02-21 16:03:00,
2013-02-21 08:08:00,41.0,38.6,30.10,SW,225,10.0,10.0,91,0.00,,---,0.02,VWS V14.01,2013-02-21 16:08:00,
2013-02-21 08:13:00,41.1,38.4,30.10,SSW,213,10.0,11.0,90,0.00,,---,0.02,VWS V14.01,2013-02-21 16:13:00,
2013-02-21 08:18:00,41.1,38.4,30.10,SSW,209,12.0,14.0,90,0.00,,---,0.02,VWS V14.01,2013-02-21 16:18:00,
2013-02-21 08:23:00,41.1,38.4,30.10,SW,232,12.0,15.0,90,0.00,,---,0.02,VWS V14.01,2013-02-21 16:23:00,
2013-02-21 08:28:00,41.2,38.2,30.10,SW,223,16.0,23.0,89,0.00,,---,0.02,VWS V14.01,2013-02-21 16:28:00,
2013-02-21 08:33:00,41.3,38.3,30.10,SW,227,14.0,17.0,89,0.00,,---,0.02,VWS V14.01,2013-02-21 16:33:00,
2013-02-21 08:38:00,41.3,38.0,30.10,SSW,198,9.0,14.0,88,0.00,,---,0.02,VWS V14.01,2013-02-21 16:38:00,
2013-02-21 08:43:00,41.3,38.3,30.10,SSW,192,7.0,18.0,89,0.00,,---,0.02,VWS V14.01,2013-02-21 16:43:00,
2013-02-21 08:48:00,41.1,38.4,30.10,SSW,207,4.0,8.0,90,0.00,,---,0.02,VWS V14.01,2013-02-21 16:48:00,
2013-02-21 08:53:00,41.0,38.3,30.10,SW,215,12.0,13.0,90,0.00,,---,0.02,VWS V14.01,2013-02-21 16:53:00,
2013-02-21 08:58:00,40.9,38.2,30.10,SW,214,5.0,13.0,90,0.00,,---,0.02,VWS V14.01,2013-02-21 16:58:00,
2013-02-21 09:03:00,40.9,38.2,30.10,South,191,7.0,9.0,90,0.00,,---,0.02,VWS V14.01,2013-02-21 17:03:00,
2013-02-21 09:08:00,40.9,37.9,30.10,SSW,212,5.0,6.0,89,0.00,,---,0.02,VWS V14.01,2013-02-21 17:08:00,
2013-02-21 09:13:00,41.0,38.0,30.11,SW,223,6.0,13.0,89,0.00,,---,0.02,VWS V14.01,2013-02-21 17:13:00,
2013-02-21 09:18:00,41.0,38.0,30.11,SSW,194,7.0,10.0,89,0.00,,---,0.02,VWS V14.01,2013-02-21 17:18:00,
2013-02-21 09:23:00,40.9,37.9,30.10,SSW,212,12.0,24.0,89,0.00,,---,0.02,VWS V14.01,2013-02-21 17:23:00,
2013-02-21 09:28:00,40.8,38.1,30.10,South,184,12.0,19.0,90,0.01,,---,0.03,VWS V14.01,2013-02-21 17:28:00,
2013-02-21 09:33:00,40.7,38.0,30.10,South,188,11.0,13.0,90,0.01,,---,0.03,VWS V14.01,2013-02-21 17:33:00,
2013-02-21 09:38:00,40.6,38.2,30.09,SW,221,14.0,16.0,91,0.01,,---,0.03,VWS V14.01,2013-02-21 17:38:00,
2013-02-21 09:43:00,40.5,38.4,30.09,SSW,202,6.0,13.0,92,0.01,,---,0.03,VWS V14.01,2013-02-21 17:43:00,
2013-02-21 09:48:00,40.5,38.4,30.10,SSW,204,12.0,14.0,92,0.01,,---,0.03,VWS V14.01,2013-02-21 17:48:00,
2013-02-21 09:53:00,40.5,38.4,30.09,South,176,10.0,18.0,92,0.01,,---,0.03,VWS V14.01,2013-02-21 17:53:00,
2013-02-21 09:58:00,40.5,38.4,30.09,South,182,11.0,20.0,92,0.01,,---,0.03,VWS V14.01,2013-02-21 17:58:00,
2013-02-21 10:03:00,40.7,38.6,30.10,SSW,201,13.0,20.0,92,0.01,,---,0.03,VWS V14.01,2013-02-21 18:03:00,
2013-02-21 10:08:00,40.8,38.4,30.10,WSW,238,8.0,18.0,91,0.01,,---,0.03,VWS V14.01,2013-02-21 18:08:00,
2013-02-21 10:13:00,41.0,38.3,30.10,South,187,14.0,16.0,90,0.01,,---,0.03,VWS V14.01,2013-02-21 18:13:00,
2013-02-21 10:18:00,41.1,38.4,30.10,South,174,16.0,16.0,90,0.01,,---,0.03,VWS V14.01,2013-02-21 18:18:00,
2013-02-21 10:23:00,41.1,38.7,30.09,SSW,208,8.0,15.0,91,0.01,,---,0.03,VWS V14.01,2013-02-21 18:23:00,
2013-02-21 10:28:00,41.3,38.9,30.09,SSW,205,7.0,11.0,91,0.01,,---,0.03,VWS V14.01,2013-02-21 18:28:00,
2013-02-21 10:33:00,41.3,38.9,30.09,SSW,192,11.0,22.0,91,0.00,,---,0.03,VWS V14.01,2013-02-21 18:33:00,
2013-02-21 10:38:00,41.3,38.9,30.09,SSE,159,9.0,12.0,91,0.00,,---,0.03,VWS V14.01,2013-02-21 18:38:00,
2013-02-21 10:44:00,41.3,38.6,30.09,SSE,161,18.0,19.0,90,0.00,,---,0.03,VWS V14.01,2013-02-21 18:44:00,
2013-02-21 10:49:00,41.4,38.7,30.10,South,178,13.0,13.0,90,0.00,,---,0.03,VWS V14.01,2013-02-21 18:49:00,
2013-02-21 10:54:00,41.4,38.7,30.10,South,188,5.0,7.0,90,0.00,,---,0.03,VWS V14.01,2013-02-21 18:54:00,
2013-02-21 10:59:00,41.4,38.7,30.10,South,190,2.0,11.0,90,0.00,,---,0.03,VWS V14.01,2013-02-21 18:59:00,
2013-02-21 11:04:00,41.4,38.7,30.10,SSW,192,9.0,10.0,90,0.00,,---,0.03,VWS V14.01,2013-02-21 19:04:00,
2013-02-21 11:09:00,41.4,38.7,30.10,SSW,207,12.0,19.0,90,0.00,,---,0.03,VWS V14.01,2013-02-21 19:09:00,
2013-02-21 11:14:00,41.4,38.4,30.11,SSW,206,9.0,14.0,89,0.00,,---,0.03,VWS V14.01,2013-02-21 19:14:00,
2013-02-21 11:19:00,41.3,38.3,30.10,SSW,197,6.0,15.0,89,0.00,,---,0.03,VWS V14.01,2013-02-21 19:19:00,
2013-02-21 11:24:00,41.3,38.3,30.10,South,186,3.0,10.0,89,0.00,,---,0.03,VWS V14.01,2013-02-21 19:24:00,
2013-02-21 11:29:00,41.2,38.2,30.10,SSW,201,7.0,18.0,89,0.00,,---,0.03,VWS V14.01,2013-02-21 19:29:00,
2013-02-21 11:34:00,41.0,38.3,30.10,SSE,156,15.0,16.0,90,0.00,,---,0.03,VWS V14.01,2013-02-21 19:34:00,
2013-02-21 11:39:00,40.7,38.0,30.10,South,189,3.0,24.0,90,0.01,,---,0.04,VWS V14.01,2013-02-21 19:39:00,
2013-02-21 11:44:00,40.6,38.2,30.10,SSW,210,10.0,17.0,91,0.01,,---,0.04,VWS V14.01,2013-02-21 19:44:00,
2013-02-21 11:49:00,40.4,38.3,30.09,South,178,12.0,18.0,92,0.01,,---,0.04,VWS V14.01,2013-02-21 19:49:00,
2013-02-21 11:54:00,40.4,38.3,30.09,SSW,199,8.0,11.0,92,0.01,,---,0.04,VWS V14.01,2013-02-21 19:54:00,
2013-02-21 11:59:00,40.3,38.2,30.09,SW,230,8.0,17.0,92,0.01,,---,0.04,VWS V14.01,2013-02-21 19:59:00,
2013-02-21 12:05:00,40.4,38.3,30.10,SSW,209,5.0,5.0,92,0.01,,---,0.04,VWS V14.01,2013-02-21 20:05:00,
2013-02-21 12:10:00,40.5,38.6,30.09,SSW,192,4.0,9.0,93,0.01,,---,0.04,VWS V14.01,2013-02-21 20:10:00,
2013-02-21 12:15:00,40.6,38.5,30.10,SSW,197,5.0,7.0,92,0.01,,---,0.04,VWS V14.01,2013-02-21 20:15:00,
2013-02-21 12:20:00,40.7,38.3,30.10,South,183,10.0,10.0,91,0.01,,---,0.04,VWS V14.01,2013-02-21 20:20:00,
2013-02-21 12:25:00,40.9,38.5,30.10,SW,214,3.0,7.0,91,0.01,,---,0.04,VWS V14.01,2013-02-21 20:25:00,
2013-02-21 12:30:00,41.0,38.3,30.10,SSW,213,11.0,14.0,90,0.01,,---,0.04,VWS V14.01,2013-02-21 20:30:00,
2013-02-21 12:35:00,41.1,38.4,30.10,SSW,196,8.0,12.0,90,0.01,,---,0.04,VWS V14.01,2013-02-21 20:35:00,
2013-02-21 12:40:00,41.2,38.8,30.09,SSW,202,8.0,9.0,91,0.00,,---,0.04,VWS V14.01,2013-02-21 20:40:00,
2013-02-21 12:45:00,41.3,38.6,30.09,SW,221,11.0,17.0,90,0.00,,---,0.04,VWS V14.01,2013-02-21 20:45:00,
2013-02-21 12:50:00,41.5,38.5,30.09,SSW,203,4.0,10.0,89,0.00,,---,0.04,VWS V14.01,2013-02-21 20:50:00,
2013-02-21 12:55:00,41.4,38.4,30.09,SSE,148,8.0,9.0,89,0.00,,---,0.04,VWS V14.01,2013-02-21 20:55:00,
2013-02-21 13:00:00,41.5,38.5,30.09,SSW,198,5.0,11.0,89,0.00,,---,0.04,VWS V14.01,2013-02-21 21:00:00,
2013-02-21 13:05:00,41.4,38.4,30.08,South,183,6.0,14.0,89,0.00,,---,0.04,VWS V14.01,2013-02-21 21:05:00,
2013-02-21 13:10:00,41.2,38.5,30.09,South,169,10.0,14.0,90,0.01,,---,0.05,VWS V14.01,2013-02-21 21:10:00,
2013-02-21 13:15:00,41.0,38.6,30.09,SW,215,11.0,13.0,91,0.01,,---,0.05,VWS V14.01,2013-02-21 21:15:00,
2013-02-21 13:20:00,40.9,38.5,30.08,SSW,202,5.0,16.0,91,0.01,,---,0.05,VWS V14.01,2013-02-21 21:20:00,
2013-02-21 13:25:00,41.0,38.3,30.08,SW,219,6.0,16.0,90,0.01,,---,0.05,VWS V14.01,2013-02-21 21:25:00,
2013-02-21 13:30:00,41.0,39.7,30.08,SSW,206,16.0,18.0,95,0.01,,---,0.05,VWS V14.01,2013-02-21 21:30:00,
2013-02-21 13:35:00,41.2,38.5,30.08,SSW,206,5.0,12.0,90,0.01,,---,0.05,VWS V14.01,2013-02-21 21:35:00,
2013-02-21 13:40:00,41.4,38.4,30.08,SSW,194,13.0,18.0,89,0.01,,---,0.05,VWS V14.01,2013-02-21 21:40:00,
2013-02-21 13:45:00,41.5,38.5,30.07,SSW,209,5.0,13.0,89,0.01,,---,0.05,VWS V14.01,2013-02-21 21:45:00,
2013-02-21 13:50:00,41.6,38.9,30.07,SSW,201,8.0,8.0,90,0.01,,---,0.05,VWS V14.01,2013-02-21 21:50:00,
2013-02-21 13:55:00,41.6,38.9,30.07,SSW,199,12.0,15.0,90,0.01,,---,0.05,VWS V14.01,2013-02-21 21:55:00,
2013-02-21 14:00:00,41.5,38.5,30.07,South,185,6.0,8.0,89,0.01,,---,0.05,VWS V14.01,2013-02-21 22:00:00,
2013-02-21 14:05:00,41.6,38.6,30.07,South,175,14.0,14.0,89,0.01,,---,0.05,VWS V14.01,2013-02-21 22:05:00,
2013-02-21 14:10:00,41.8,38.5,30.07,SSE,167,9.0,11.0,88,0.01,,---,0.05,VWS V14.01,2013-02-21 22:10:00,
2013-02-21 14:15:00,41.9,38.6,30.07,SW,222,3.0,5.0,88,0.00,,---,0.05,VWS V14.01,2013-02-21 22:15:00,
2013-02-21 14:20:00,42.1,38.8,30.07,SSW,212,4.0,8.0,88,0.00,,---,0.05,VWS V14.01,2013-02-21 22:20:00,
2013-02-21 14:25:00,42.1,39.1,30.07,SE,143,4.0,9.0,89,0.00,,---,0.05,VWS V14.01,2013-02-21 22:25:00,
2013-02-21 14:30:00,42.0,39.0,30.07,South,182,6.0,18.0,89,0.00,,---,0.05,VWS V14.01,2013-02-21 22:30:00,
2013-02-21 14:35:00,41.9,39.2,30.07,SW,229,10.0,10.0,90,0.00,,---,0.05,VWS V14.01,2013-02-21 22:35:00,
2013-02-21 14:40:00,41.8,39.4,30.07,SSW,201,7.0,11.0,91,0.00,,---,0.05,VWS V14.01,2013-02-21 22:40:00,
2013-02-21 14:45:00,41.6,39.5,30.07,South,185,13.0,14.0,92,0.00,,---,0.05,VWS V14.01,2013-02-21 22:45:00,
2013-02-21 14:50:00,41.4,39.5,30.07,SSW,194,8.0,15.0,93,0.00,,---,0.05,VWS V14.01,2013-02-21 22:50:00,
2013-02-21 14:55:00,41.4,39.5,30.07,South,171,8.0,10.0,93,0.00,,---,0.05,VWS V14.01,2013-02-21 22:55:00,
2013-02-21 15:00:00,41.4,39.8,30.06,South,182,13.0,16.0,94,0.00,,---,0.05,VWS V14.01,2013-02-21 23:00:00,
2013-02-21 15:05:00,41.4,39.8,30.07,South,186,8.0,8.0,94,0.00,,---,0.05,VWS V14.01,2013-02-21 23:05:00,
2013-02-21 15:10:00,41.6,40.0,30.07,SSW,194,4.0,7.0,94,0.00,,---,0.05,VWS V14.01,2013-02-21 23:10:00,
2013-02-21 15:15:00,41.8,39.9,30.07,SSW,198,8.0,13.0,93,0.00,,---,0.05,VWS V14.01,2013-02-21 23:15:00,
2013-02-21 15:20:00,41.8,39.9,30.07,SE,146,1.0,4.0,93,0.00,,---,0.05,VWS V14.01,2013-02-21 23:20:00,
2013-02-21 15:25:00,42.0,40.4,30.07,SSW,197,5.0,9.0,94,0.00,,---,0.05,VWS V14.01,2013-02-21 23:25:00,
2013-02-21 15:30:00,42.3,40.7,30.07,SSW,209,4.0,14.0,94,0.00,,---,0.05,VWS V14.01,2013-02-21 23:30:00,
2013-02-21 15:35:00,42.3,40.4,30.07,SW,218,8.0,13.0,93,0.00,,---,0.05,VWS V14.01,2013-02-21 23:35:00,
2013-02-21 15:40:00,42.3,40.4,30.07,South,178,4.0,5.0,93,0.00,,---,0.05,VWS V14.01,2013-02-21 23:40:00,
2013-02-21 15:45:00,42.4,40.2,30.07,ESE,115,4.0,8.0,92,0.00,,---,0.05,VWS V14.01,2013-02-21 23:45:00,
2013-02-21 15:50:00,42.4,40.2,30.07,SSE,163,5.0,11.0,92,0.00,,---,0.05,VWS V14.01,2013-02-21 23:50:00,
2013-02-21 15:55:00,42.4,40.2,30.07,SW,219,8.0,8.0,92,0.00,,---,0.05,VWS V14.01,2013-02-21 23:55:00,
2013-02-21 16:00:00,42.3,39.9,30.07,SSW,213,8.0,12.0,91,0.00,,---,0.05,VWS V14.01,2013-02-22 00:00:00,
2013-02-21 16:05:00,42.3,39.9,30.07,SSW,203,3.0,8.0,91,0.00,,---,0.05,VWS V14.01,2013-02-22 00:05:00,
2013-02-21 16:10:00,42.2,39.8,30.07,SSW,211,9.0,10.0,91,0.00,,---,0.05,VWS V14.01,2013-02-22 00:10:00,
2013-02-21 16:15:00,42.2,39.8,30.08,SSW,200,3.0,3.0,91,0.00,,---,0.05,VWS V14.01,2013-02-22 00:15:00,
2013-02-21 16:20:00,42.2,39.8,30.08,South,184,4.0,7.0,91,0.00,,---,0.05,VWS V14.01,2013-02-22 00:20:00,
2013-02-21 16:25:00,42.2,39.8,30.08,SW,215,4.0,5.0,91,0.00,,---,0.05,VWS V14.01,2013-02-22 00:25:00,
2013-02-21 16:30:00,42.2,39.5,30.08,SSE,167,2.0,5.0,90,0.00,,---,0.05,VWS V14.01,2013-02-22 00:30:00,
2013-02-21 16:35:00,42.3,39.6,30.07,SW,235,7.0,12.0,90,0.00,,---,0.05,VWS V14.01,2013-02-22 00:35:00,
2013-02-21 16:40:00,42.3,39.6,30.07,SW,228,7.0,11.0,90,0.00,,---,0.05,VWS V14.01,2013-02-22 00:40:00,
2013-02-21 16:45:00,42.4,39.7,30.07,SSE,157,11.0,18.0,90,0.00,,---,0.05,VWS V14.01,2013-02-22 00:45:00,
2013-02-21 16:50:00,42.5,39.5,30.07,South,184,8.0,9.0,89,0.00,,---,0.05,VWS V14.01,2013-02-22 00:50:00,
2013-02-21 16:55:00,42.5,39.5,30.07,South,182,8.0,12.0,89,0.00,,---,0.05,VWS V14.01,2013-02-22 00:55:00,
2013-02-21 17:00:00,42.6,39.6,30.06,South,191,12.0,13.0,89,0.00,,---,0.05,VWS V14.01,2013-02-22 01:00:00,
2013-02-21 17:05:00,42.6,39.6,30.07,South,182,4.0,11.0,89,0.00,,---,0.05,VWS V14.01,2013-02-22 01:05:00,
2013-02-21 17:10:00,42.6,39.6,30.07,SW,218,7.0,8.0,89,0.00,,---,0.05,VWS V14.01,2013-02-22 01:10:00,
2013-02-21 17:15:00,42.6,39.6,30.07,SSW,213,12.0,12.0,89,0.00,,---,0.05,VWS V14.01,2013-02-22 01:15:00,
2013-02-21 17:20:00,42.7,39.4,30.07,SSW,207,5.0,9.0,88,0.00,,---,0.05,VWS V14.01,2013-02-22 01:20:00,
2013-02-21 17:25:00,42.7,39.4,30.08,SSW,196,6.0,12.0,88,0.00,,---,0.05,VWS V14.01,2013-02-22 01:25:00,
2013-02-21 17:30:00,42.8,39.5,30.08,South,173,5.0,7.0,88,0.00,,---,0.05,VWS V14.01,2013-02-22 01:30:00,
2013-02-21 17:35:00,42.8,39.5,30.08,SSE,168,2.0,12.0,88,0.00,,---,0.05,VWS V14.01,2013-02-22 01:35:00,
2013-02-21 17:40:00,42.9,39.6,30.09,SW,221,2.0,8.0,88,0.00,,---,0.05,VWS V14.01,2013-02-22 01:40:00,
2013-02-21 17:45:00,42.9,39.3,30.09,SSW,196,2.0,3.0,87,0.00,,---,0.05,VWS V14.01,2013-02-22 01:45:00,
2013-02-21 17:50:00,42.9,39.3,30.09,South,188,0.0,8.0,87,0.00,,---,0.05,VWS V14.01,2013-02-22 01:50:00,
2013-02-21 17:55:00,42.9,39.3,30.09,SSW,196,7.0,10.0,87,0.00,,---,0.05,VWS V14.01,2013-02-22 01:55:00,
2013-02-21 18:00:00,43.0,39.4,30.10,SW,219,7.0,7.0,87,0.00,,---,0.05,VWS V14.01,2013-02-22 02:00:00,
2013-02-21 18:05:00,42.9,39.3,30.10,South,188,4.0,13.0,87,0.00,,---,0.05,VWS V14.01,2013-02-22 02:05:00,
2013-02-21 18:10:00,43.0,39.4,30.10,South,171,7.0,7.0,87,0.00,,---,0.05,VWS V14.01,2013-02-22 02:10:00,
2013-02-21 18:15:00,42.9,39.3,30.09,South,182,4.0,8.0,87,0.00,,---,0.05,VWS V14.01,2013-02-22 02:15:00,
2013-02-21 18:20:00,42.9,39.6,30.10,SSW,202,3.0,4.0,88,0.00,,---,0.05,VWS V14.01,2013-02-22 02:20:00,
2013-02-21 18:25:00,42.9,39.6,30.10,SSW,203,6.0,6.0,88,0.00,,---,0.05,VWS V14.01,2013-02-22 02:25:00,
2013-02-21 18:30:00,43.0,39.4,30.10,SSW,196,10.0,12.0,87,0.00,,---,0.05,VWS V14.01,2013-02-22 02:30:00,
2013-02-21 18:35:00,43.1,39.5,30.09,SSW,192,2.0,7.0,87,0.00,,---,0.05,VWS V14.01,2013-02-22 02:35:00,
2013-02-21 18:40:00,43.2,39.6,30.09,SSE,155,2.0,10.0,87,0.00,,---,0.05,VWS V14.01,2013-02-22 02:40:00,
2013-02-21 18:45:00,43.2,39.6,30.09,SSW,198,4.0,7.0,87,0.00,,---,0.05,VWS V14.01,2013-02-22 02:45:00,
2013-02-21 18:50:00,43.2,39.6,30.09,South,174,7.0,10.0,87,0.00,,---,0.05,VWS V14.01,2013-02-22 02:50:00,
2013-02-21 18:55:00,43.1,39.5,30.09,SSW,196,8.0,10.0,87,0.00,,---,0.05,VWS V14.01,2013-02-22 02:55:00,
2013-02-21 19:00:00,43.1,39.8,30.08,SSW,194,4.0,9.0,88,0.00,,---,0.05,VWS V14.01,2013-02-22 03:00:00,
2013-02-21 19:05:00,43.0,39.7,30.09,SSW,197,13.0,15.0,88,0.00,,---,0.05,VWS V14.01,2013-02-22 03:05:00,
2013-02-21 19:10:00,43.0,39.7,30.09,SSW,212,7.0,13.0,88,0.00,,---,0.05,VWS V14.01,2013-02-22 03:10:00,
2013-02-21 19:15:00,43.0,39.7,30.09,SW,226,5.0,13.0,88,0.00,,---,0.05,VWS V14.01,2013-02-22 03:15:00,
2013-02-21 19:20:00,42.9,39.6,30.09,South,182,9.0,14.0,88,0.00,,---,0.05,VWS V14.01,2013-02-22 03:20:00,
2013-02-21 19:25:00,42.9,39.6,30.09,South,189,7.0,10.0,88,0.00,,---,0.05,VWS V14.01,2013-02-22 03:25:00,
2013-02-21 19:30:00,42.9,39.6,30.09,SSW,211,9.0,11.0,88,0.00,,---,0.05,VWS V14.01,2013-02-22 03:30:00,
2013-02-21 19:35:00,42.9,39.6,30.09,SW,221,8.0,9.0,88,0.00,,---,0.05,VWS V14.01,2013-02-22 03:35:00,
2013-02-21 19:40:00,42.8,39.5,30.09,SSW,200,9.0,9.0,88,0.00,,---,0.05,VWS V14.01,2013-02-22 03:40:00,
2013-02-21 19:45:00,42.8,39.5,30.09,SSW,211,6.0,10.0,88,0.00,,---,0.05,VWS V14.01,2013-02-22 03:45:00,
2013-02-21 19:50:00,42.7,39.7,30.09,SSW,211,4.0,8.0,89,0.00,,---,0.05,VWS V14.01,2013-02-22 03:50:00,
2013-02-21 19:55:00,42.7,39.7,30.09,South,181,11.0,13.0,89,0.00,,---,0.05,VWS V14.01,2013-02-22 03:55:00,
2013-02-21 20:00:00,42.7,39.7,30.09,SW,220,8.0,15.0,89,0.00,,---,0.05,VWS V14.01,2013-02-22 04:00:00,
2013-02-21 20:05:00,42.8,39.8,30.09,SSW,213,5.0,13.0,89,0.00,,---,0.05,VWS V14.01,2013-02-22 04:05:00,
2013-02-21 20:10:00,42.8,39.8,30.09,SW,223,8.0,8.0,89,0.00,,---,0.05,VWS V14.01,2013-02-22 04:10:00,
2013-02-21 20:15:00,42.8,39.8,30.09,SW,232,6.0,10.0,89,0.00,,---,0.05,VWS V14.01,2013-02-22 04:15:00,
2013-02-21 20:20:00,42.9,39.9,30.09,SW,215,5.0,5.0,89,0.00,,---,0.05,VWS V14.01,2013-02-22 04:20:00,
2013-02-21 20:25:00,42.9,39.9,30.09,South,183,7.0,10.0,89,0.00,,---,0.05,VWS V14.01,2013-02-22 04:25:00,
2013-02-21 20:30:00,42.9,39.9,30.09,South,178,6.0,6.0,89,0.00,,---,0.05,VWS V14.01,2013-02-22 04:30:00,
2013-02-21 20:35:00,42.9,39.9,30.10,SSW,192,10.0,10.0,89,0.00,,---,0.05,VWS V14.01,2013-02-22 04:35:00,
2013-02-21 20:40:00,43.0,40.0,30.11,SSW,195,7.0,8.0,89,0.00,,---,0.05,VWS V14.01,2013-02-22 04:40:00,
2013-02-21 20:45:00,42.9,39.9,30.10,SW,225,9.0,9.0,89,0.00,,---,0.05,VWS V14.01,2013-02-22 04:45:00,
2013-02-21 20:50:00,43.0,40.0,30.11,SSW,200,3.0,9.0,89,0.00,,---,0.05,VWS V14.01,2013-02-22 04:50:00,
2013-02-21 20:55:00,43.0,40.0,30.11,SW,221,6.0,11.0,89,0.00,,---,0.05,VWS V14.01,2013-02-22 04:55:00,
2013-02-21 21:00:00,43.0,39.7,30.11,SSW,208,9.0,12.0,88,0.00,,---,0.05,VWS V14.01,2013-02-22 05:00:00,
2013-02-21 21:01:00,43.1,39.8,30.11,SW,216,5.0,9.0,88,0.00,,---,0.05,VWS V14.01,2013-02-22 05:01:00,
2013-02-21 21:02:00,43.1,39.8,30.11,SW,216,3.0,3.0,88,0.00,,---,0.05,VWS V14.01,2013-02-22 05:02:00,
2013-02-21 21:07:00,43.1,39.8,30.11,SSW,197,10.0,10.0,88,0.00,,---,0.05,VWS V14.01,2013-02-22 05:07:00,
2013-02-21 21:12:00,43.1,39.8,30.11,South,184,4.0,5.0,88,0.00,,---,0.05,VWS V14.01,2013-02-22 05:12:00,
2013-02-21 21:17:00,43.2,39.9,30.11,SSW,199,5.0,5.0,88,0.00,,---,0.05,VWS V14.01,2013-02-22 05:17:00,
2013-02-21 21:22:00,43.2,39.9,30.11,SW,223,5.0,9.0,88,0.00,,---,0.05,VWS V14.01,2013-02-22 05:22:00,
2013-02-21 21:27:00,43.2,39.9,30.12,SSW,200,3.0,10.0,88,0.00,,---,0.05,VWS V14.01,2013-02-22 05:27:00,
2013-02-21 21:32:00,43.2,39.9,30.12,SW,222,6.0,8.0,88,0.00,,---,0.05,VWS V14.01,2013-02-22 05:32:00,
2013-02-21 21:37:00,43.2,39.9,30.12,SSW,196,4.0,9.0,88,0.00,,---,0.05,VWS V14.01,2013-02-22 05:37:00,
2013-02-21 21:42:00,43.2,39.9,30.12,SW,218,6.0,6.0,88,0.00,,---,0.05,VWS V14.01,2013-02-22 05:42:00,
2013-02-21 21:47:00,43.3,40.0,30.12,SW,216,4.0,10.0,88,0.00,,---,0.05,VWS V14.01,2013-02-22 05:47:00,
2013-02-21 21:52:00,43.3,40.0,30.12,SSE,160,8.0,8.0,88,0.00,,---,0.05,VWS V14.01,2013-02-22 05:52:00,
2013-02-21 21:57:00,43.2,39.9,30.12,SW,217,6.0,10.0,88,0.00,,---,0.05,VWS V14.01,2013-02-22 05:57:00,
2013-02-21 22:02:00,43.3,40.0,30.12,South,174,4.0,12.0,88,0.00,,---,0.05,VWS V14.01,2013-02-22 06:02:00,
2013-02-21 22:07:00,43.3,40.0,30.12,SW,227,13.0,13.0,88,0.00,,---,0.05,VWS V14.01,2013-02-22 06:07:00,
2013-02-21 22:12:00,43.3,40.0,30.12,SW,219,3.0,8.0,88,0.00,,---,0.05,VWS V14.01,2013-02-22 06:12:00,
2013-02-21 22:17:00,43.3,40.0,30.12,SSW,192,3.0,7.0,88,0.00,,---,0.05,VWS V14.01,2013-02-22 06:17:00,
2013-02-21 22:22:00,43.2,39.9,30.12,South,190,8.0,8.0,88,0.00,,---,0.05,VWS V14.01,2013-02-22 06:22:00,
2013-02-21 22:27:00,43.2,39.9,30.12,SSW,207,4.0,6.0,88,0.00,,---,0.05,VWS V14.01,2013-02-22 06:27:00,
2013-02-21 22:32:00,43.1,39.8,30.11,South,182,14.0,14.0,88,0.00,,---,0.05,VWS V14.01,2013-02-22 06:32:00,
2013-02-21 22:37:00,43.0,39.7,30.11,SSW,200,9.0,15.0,88,0.00,,---,0.05,VWS V14.01,2013-02-22 06:37:00,
2013-02-21 22:42:00,43.0,39.7,30.11,South,181,7.0,10.0,88,0.00,,---,0.05,VWS V14.01,2013-02-22 06:42:00,
2013-02-21 22:47:00,43.0,39.7,30.11,SW,218,8.0,15.0,88,0.00,,---,0.05,VWS V14.01,2013-02-22 06:47:00,
2013-02-21 22:52:00,43.0,39.7,30.11,SSW,194,9.0,9.0,88,0.00,,---,0.05,VWS V14.01,2013-02-22 06:52:00,
2013-02-21 22:57:00,43.0,39.7,30.11,SE,142,8.0,13.0,88,0.00,,---,0.05,VWS V14.01,2013-02-22 06:57:00,
2013-02-21 23:02:00,42.9,39.6,30.10,SSW,192,3.0,8.0,88,0.00,,---,0.05,VWS V14.01,2013-02-22 07:02:00,
2013-02-21 23:07:00,42.9,39.6,30.10,SSE,165,6.0,7.0,88,0.00,,---,0.05,VWS V14.01,2013-02-22 07:07:00,
2013-02-21 23:12:00,43.0,39.7,30.10,SSW,212,9.0,16.0,88,0.00,,---,0.05,VWS V14.01,2013-02-22 07:12:00,
2013-02-21 23:17:00,43.0,39.4,30.10,SSE,161,8.0,9.0,87,0.00,,---,0.05,VWS V14.01,2013-02-22 07:17:00,
2013-02-21 23:22:00,43.1,39.5,30.10,South,175,5.0,10.0,87,0.00,,---,0.05,VWS V14.01,2013-02-22 07:22:00,
2013-02-21 23:27:00,43.1,39.5,30.10,SSW,207,8.0,13.0,87,0.00,,---,0.05,VWS V14.01,2013-02-22 07:27:00,
2013-02-21 23:32:00,43.2,39.6,30.10,South,183,15.0,15.0,87,0.00,,---,0.05,VWS V14.01,2013-02-22 07:32:00,
2013-02-21 23:37:00,43.1,39.5,30.11,SSW,211,16.0,16.0,87,0.00,,---,0.05,VWS V14.01,2013-02-22 07:37:00,
2013-02-21 23:42:00,43.1,39.5,30.10,SW,215,7.0,10.0,87,0.00,,---,0.05,VWS V14.01,2013-02-22 07:42:00,
2013-02-21 23:47:00,43.1,39.5,30.10,South,182,7.0,10.0,87,0.00,,---,0.05,VWS V14.01,2013-02-22 07:47:00,
2013-02-21 23:52:00,43.1,39.5,30.11,SSW,210,8.0,12.0,87,0.00,,---,0.05,VWS V14.01,2013-02-22 07:52:00,
2013-02-21 23:57:00,43.1,39.5,30.10,SW,227,10.0,10.0,87,0.00,,---,0.05,VWS V14.01,2013-02-22 07:57:00,